createdAt,value
2018-05-18T00:00:53.241Z,40.07
2018-05-18T00:03:20.883Z,53.83
2018-05-18T00:05:48.426Z,44.70
2018-05-18T00:08:15.970Z,40.60
2018-05-18T00:10:44.388Z,38.47
2018-05-18T00:13:11.974Z,42.93
2018-05-18T00:15:39.549Z,39.23
2018-05-18T00:18:08.586Z,38.60
2018-05-18T00:20:36.166Z,42.07
2018-05-18T00:23:03.738Z,29.77
2018-05-18T00:25:31.400Z,37.70
2018-05-18T00:27:58.961Z,38.17
2018-05-18T00:30:26.494Z,39.07
2018-05-18T00:32:54.067Z,35.60
2018-05-18T00:35:21.633Z,36.53
2018-05-18T00:37:49.276Z,32.83
2018-05-18T00:40:16.805Z,48.87
2018-05-18T00:42:45.117Z,48.23
2018-05-18T00:45:12.668Z,48.63
2018-05-18T00:47:40.208Z,34.97
2018-05-18T00:50:07.753Z,37.50
2018-05-18T00:52:36.095Z,47.67
2018-05-18T00:58:00.657Z,45.37
2018-05-18T01:00:28.190Z,31.47
2018-05-18T01:02:56.563Z,36.77
2018-05-18T01:05:25.348Z,49.67
2018-05-18T01:07:53.647Z,36.73
2018-05-18T01:10:22.010Z,46.53
2018-05-18T01:12:50.318Z,28.13
2018-05-18T01:15:17.911Z,34.63
2018-05-18T01:17:45.500Z,52.43
2018-05-18T01:20:13.111Z,43.13
2018-05-18T01:22:40.704Z,36.07
2018-05-18T01:25:08.258Z,40.20
2018-05-18T01:27:35.774Z,42.20
2018-05-18T01:30:03.343Z,45.40
2018-05-18T01:32:30.929Z,44.77
2018-05-18T01:34:58.515Z,43.27
2018-05-18T01:37:26.104Z,44.83
2018-05-18T01:39:53.639Z,48.67
2018-05-18T01:42:21.243Z,38.73
2018-05-18T01:44:48.829Z,44.80
2018-05-18T01:47:16.381Z,36.67
2018-05-18T01:49:43.934Z,44.57
2018-05-18T01:52:11.615Z,47.07
2018-05-18T01:54:39.140Z,46.67
2018-05-18T01:57:06.708Z,48.27
2018-05-18T01:59:34.258Z,42.07
2018-05-18T02:02:01.823Z,52.37
2018-05-18T02:04:29.378Z,35.23
2018-05-18T02:06:56.925Z,37.13
2018-05-18T02:09:24.475Z,52.87
2018-05-18T02:11:52.793Z,44.37
2018-05-18T02:14:20.376Z,26.73
2018-05-18T02:16:47.975Z,31.33
2018-05-18T02:19:16.285Z,38.73
2018-05-18T02:21:43.864Z,42.20
2018-05-18T02:24:11.417Z,40.47
2018-05-18T02:26:38.929Z,36.37
2018-05-18T02:29:06.495Z,44.30
2018-05-18T02:31:34.065Z,32.43
2018-05-18T02:34:01.605Z,37.50
2018-05-18T02:36:29.976Z,49.53
2018-05-18T02:38:58.343Z,48.63
2018-05-18T02:41:25.932Z,65.17
2018-05-18T02:43:53.463Z,52.67
2018-05-18T02:46:21.828Z,43.10
2018-05-18T02:48:49.372Z,51.53
2018-05-18T02:51:16.939Z,48.93
2018-05-18T02:53:44.505Z,54.83
2018-05-18T02:56:12.863Z,51.80
2018-05-18T02:58:40.431Z,47.90
2018-05-18T03:01:07.964Z,40.13
2018-05-18T03:03:35.524Z,37.23
2018-05-18T03:06:03.097Z,44.67
2018-05-18T03:08:30.697Z,34.50
2018-05-18T03:10:59.006Z,42.70
2018-05-18T03:13:26.531Z,39.37
2018-05-18T03:15:54.838Z,36.93
2018-05-18T03:18:22.409Z,40.83
2018-05-18T03:20:50.002Z,34.40
2018-05-18T03:23:17.592Z,37.63
2018-05-18T03:25:45.879Z,45.13
2018-05-18T03:28:13.463Z,39.13
2018-05-18T03:30:41.066Z,35.20
2018-05-18T03:35:43.511Z,30.43
2018-05-18T03:38:11.094Z,48.70
2018-05-18T03:40:38.626Z,36.03
2018-05-18T03:43:06.178Z,27.10
2018-05-18T03:45:33.714Z,33.07
2018-05-18T03:48:02.054Z,26.40
2018-05-18T03:50:29.605Z,22.53
2018-05-18T03:52:57.167Z,26.87
2018-05-18T03:55:25.289Z,22.27
2018-05-18T03:57:53.590Z,22.03
2018-05-18T04:00:21.166Z,23.93
2018-05-18T04:03:00.538Z,32.73
2018-05-18T04:05:40.002Z,27.13
2018-05-18T04:08:09.787Z,31.60
2018-05-18T04:10:37.351Z,30.03
2018-05-18T04:13:05.713Z,27.17
2018-05-18T04:15:33.277Z,25.70
2018-05-18T04:18:01.086Z,33.10
2018-05-18T04:20:28.773Z,38.13
2018-05-18T04:22:56.338Z,22.13
2018-05-18T04:25:24.074Z,40.83
2018-05-18T04:27:51.620Z,42.10
2018-05-18T04:30:20.078Z,44.43
2018-05-18T04:32:47.544Z,34.10
2018-05-18T04:35:15.884Z,33.90
2018-05-18T04:37:43.533Z,32.37
2018-05-18T04:40:11.066Z,37.10
2018-05-18T04:42:38.652Z,31.83
2018-05-18T04:45:06.175Z,27.33
2018-05-18T04:47:34.537Z,39.90
2018-05-18T04:50:02.087Z,28.83
2018-05-18T04:52:31.162Z,33.63
2018-05-18T04:54:58.767Z,33.13
2018-05-18T04:57:26.373Z,25.33
2018-05-18T04:59:53.965Z,26.70
2018-05-18T05:02:22.326Z,30.73
2018-05-18T05:04:49.953Z,32.70
2018-05-18T05:07:17.498Z,21.90
2018-05-18T05:09:45.104Z,36.27
2018-05-18T05:12:12.634Z,34.93
2018-05-18T05:14:40.208Z,42.20
2018-05-18T05:17:07.777Z,34.17
2018-05-18T05:19:35.343Z,37.90
2018-05-18T05:22:02.866Z,35.90
2018-05-18T05:24:30.459Z,40.90
2018-05-18T05:26:58.003Z,41.47
2018-05-18T05:29:25.564Z,35.47
2018-05-18T05:31:53.089Z,30.03
2018-05-18T05:34:20.622Z,28.53
2018-05-18T05:36:48.311Z,36.40
2018-05-18T05:39:17.797Z,34.40
2018-05-18T05:41:46.139Z,33.30
2018-05-18T05:44:13.672Z,31.73
2018-05-18T05:46:41.248Z,23.97
2018-05-18T05:49:08.837Z,22.97
2018-05-18T05:51:37.165Z,21.07
2018-05-18T05:54:04.744Z,26.97
2018-05-18T05:56:32.295Z,17.97
2018-05-18T05:58:59.894Z,25.00
2018-05-18T06:01:28.187Z,24.90
2018-05-18T06:03:56.569Z,21.87
2018-05-18T06:06:24.912Z,15.90
2018-05-18T06:08:52.454Z,14.60
2018-05-18T06:11:19.977Z,25.87
2018-05-18T06:13:47.505Z,17.87
2018-05-18T06:16:16.582Z,26.40
2018-05-18T06:18:44.131Z,15.50
2018-05-18T06:21:11.808Z,24.10
2018-05-18T06:23:39.393Z,15.60
2018-05-18T06:26:06.945Z,16.47
2018-05-18T06:28:34.503Z,18.20
2018-05-18T06:31:02.043Z,21.10
2018-05-18T06:33:29.577Z,22.27
2018-05-18T06:35:57.127Z,30.40
2018-05-18T06:38:24.648Z,22.27
2018-05-18T06:40:53.027Z,16.73
2018-05-18T06:43:21.367Z,25.63
2018-05-18T06:45:48.910Z,25.40
2018-05-18T06:48:16.449Z,21.10
2018-05-18T06:50:44.018Z,19.70
2018-05-18T06:53:11.780Z,24.60
2018-05-18T06:55:39.351Z,18.43
2018-05-18T06:58:06.908Z,17.03
2018-05-18T07:00:34.438Z,14.67
2018-05-18T07:03:01.977Z,18.33
2018-05-18T07:05:29.628Z,19.90
2018-05-18T07:07:57.951Z,18.90
2018-05-18T07:10:25.511Z,11.67
2018-05-18T07:12:53.110Z,25.90
2018-05-18T07:15:20.760Z,15.83
2018-05-18T07:17:48.422Z,13.50
2018-05-18T07:20:15.952Z,12.73
2018-05-18T07:22:43.898Z,10.23
2018-05-18T07:25:11.475Z,16.63
2018-05-18T07:27:39.019Z,18.00
2018-05-18T07:30:06.718Z,20.37
2018-05-18T07:32:34.184Z,24.73
2018-05-18T07:35:01.756Z,20.50
2018-05-18T07:37:29.382Z,27.97
2018-05-18T07:39:56.958Z,15.17
2018-05-18T07:42:24.523Z,16.93
2018-05-18T07:44:52.074Z,13.00
2018-05-18T07:47:19.626Z,17.97
2018-05-18T07:49:47.244Z,20.20
2018-05-18T07:52:15.632Z,18.50
2018-05-18T07:54:43.220Z,21.10
2018-05-18T07:57:10.818Z,13.97
2018-05-18T07:59:38.412Z,19.60
2018-05-18T08:02:05.969Z,18.53
2018-05-18T08:04:34.279Z,23.03
2018-05-18T08:07:01.860Z,16.57
2018-05-18T08:09:29.402Z,22.93
2018-05-18T08:11:56.987Z,18.30
2018-05-18T08:14:24.591Z,19.30
2018-05-18T08:16:52.920Z,14.87
2018-05-18T08:19:20.483Z,24.20
2018-05-18T08:21:48.020Z,15.47
2018-05-18T08:24:15.609Z,18.13
2018-05-18T08:26:43.174Z,16.90
2018-05-18T08:29:22.795Z,18.60
2018-05-18T08:31:50.477Z,26.93
2018-05-18T08:34:18.051Z,22.07
2018-05-18T08:36:45.619Z,20.70
2018-05-18T08:39:14.041Z,30.83
2018-05-18T08:41:41.576Z,20.77
2018-05-18T08:44:09.118Z,21.00
2018-05-18T08:46:37.475Z,19.67
2018-05-18T08:49:05.028Z,20.90
2018-05-18T08:51:32.611Z,27.37
2018-05-18T08:54:00.971Z,34.27
2018-05-18T08:56:28.620Z,30.57
2018-05-18T08:58:56.179Z,21.70
2018-05-18T09:01:23.726Z,27.20
2018-05-18T09:03:51.298Z,18.87
2018-05-18T09:06:18.865Z,24.03
2018-05-18T09:08:46.405Z,25.47
2018-05-18T09:11:13.988Z,27.23
2018-05-18T09:13:41.546Z,35.87
2018-05-18T09:16:09.077Z,31.10
2018-05-18T09:18:36.650Z,27.70
2018-05-18T09:21:04.212Z,30.50
2018-05-18T09:23:31.782Z,29.73
2018-05-18T09:25:59.416Z,30.57
2018-05-18T09:28:27.078Z,31.40
2018-05-18T09:30:54.648Z,22.33
2018-05-18T09:33:22.290Z,30.83
2018-05-18T09:35:49.867Z,26.20
2018-05-18T09:38:17.405Z,29.80
2018-05-18T09:40:45.014Z,29.97
2018-05-18T09:43:12.586Z,26.63
2018-05-18T09:45:40.948Z,35.90
2018-05-18T09:48:08.493Z,39.47
2018-05-18T09:50:36.061Z,37.63
2018-05-18T09:53:03.619Z,36.03
2018-05-18T09:55:31.521Z,41.57
2018-05-18T09:57:59.653Z,35.23
2018-05-18T10:00:28.005Z,33.03
2018-05-18T10:02:55.534Z,31.77
2018-05-18T10:05:23.084Z,23.70
2018-05-18T10:07:51.410Z,43.80
2018-05-18T10:10:19.045Z,52.37
2018-05-18T10:12:46.644Z,48.30
2018-05-18T10:15:14.284Z,36.17
2018-05-18T10:17:41.856Z,44.43
2018-05-18T10:20:09.411Z,44.57
2018-05-18T10:22:36.954Z,38.30
2018-05-18T10:25:04.507Z,36.00
2018-05-18T10:27:32.056Z,32.83
2018-05-18T10:29:59.641Z,32.23
2018-05-18T10:32:27.182Z,40.23
2018-05-18T10:34:54.744Z,38.40
2018-05-18T10:37:22.321Z,38.07
2018-05-18T10:39:49.975Z,43.73
2018-05-18T10:42:17.509Z,38.63
2018-05-18T10:44:45.108Z,38.07
2018-05-18T10:47:12.721Z,34.43
2018-05-18T10:49:40.280Z,42.33
2018-05-18T10:52:08.609Z,40.80
2018-05-18T10:54:36.200Z,50.13
2018-05-18T10:57:03.752Z,39.27
2018-05-18T10:59:31.309Z,31.53
2018-05-18T11:01:58.852Z,45.70
2018-05-18T11:04:26.443Z,40.80
2018-05-18T11:06:54.805Z,49.30
2018-05-18T11:09:23.127Z,37.17
2018-05-18T11:11:50.676Z,52.13
2018-05-18T11:14:18.291Z,45.73
2018-05-18T11:16:45.821Z,40.93
2018-05-18T11:19:13.375Z,46.30
2018-05-18T11:21:40.917Z,46.90
2018-05-18T11:24:08.479Z,47.60
2018-05-18T11:26:36.043Z,39.67
2018-05-18T11:29:03.601Z,38.77
2018-05-18T11:31:31.138Z,42.77
2018-05-18T11:33:59.523Z,54.87
2018-05-18T11:36:27.095Z,53.03
2018-05-18T11:38:54.658Z,49.80
2018-05-18T11:41:22.251Z,50.80
2018-05-18T11:43:49.779Z,39.50
2018-05-18T11:46:17.337Z,29.93
2018-05-18T11:48:44.935Z,38.23
2018-05-18T11:51:12.516Z,40.83
2018-05-18T11:53:40.163Z,36.10
2018-05-18T11:56:07.743Z,37.30
2018-05-18T11:58:36.044Z,35.60
2018-05-18T12:01:03.622Z,41.63
2018-05-18T12:03:31.190Z,33.67
2018-05-18T12:05:58.748Z,35.60
2018-05-18T12:08:26.425Z,42.00
2018-05-18T12:10:54.637Z,36.50
2018-05-18T12:13:22.241Z,46.50
2018-05-18T12:15:49.800Z,35.83
2018-05-18T12:18:17.356Z,46.23
2018-05-18T12:20:44.911Z,44.33
2018-05-18T12:23:12.464Z,34.27
2018-05-18T12:25:40.066Z,36.47
2018-05-18T12:28:07.651Z,36.23
2018-05-18T12:30:36.002Z,45.30
2018-05-18T12:33:03.566Z,39.57
2018-05-18T12:35:31.306Z,32.33
2018-05-18T12:37:58.974Z,36.20
2018-05-18T12:40:27.214Z,36.80
2018-05-18T12:42:54.798Z,34.50
2018-05-18T12:45:22.350Z,49.33
2018-05-18T12:47:49.916Z,39.27
2018-05-18T12:50:17.491Z,42.87
2018-05-18T12:52:45.042Z,45.57
2018-05-18T12:55:12.592Z,40.67
2018-05-18T12:57:40.134Z,39.17
2018-05-18T13:00:07.720Z,45.03
2018-05-18T13:02:35.256Z,43.33
2018-05-18T13:05:02.831Z,39.10
2018-05-18T13:07:30.374Z,49.93
2018-05-18T13:09:58.036Z,36.23
2018-05-18T13:12:25.602Z,50.87
2018-05-18T13:14:53.145Z,37.37
2018-05-18T13:17:21.488Z,43.70
2018-05-18T13:19:49.855Z,46.47
2018-05-18T13:22:17.443Z,39.73
2018-05-18T13:24:45.006Z,35.93
2018-05-18T13:29:46.536Z,43.03
2018-05-18T13:32:14.078Z,45.00
2018-05-18T13:34:41.701Z,41.63
2018-05-18T13:37:10.043Z,35.70
2018-05-18T13:39:37.616Z,47.40
2018-05-18T13:42:05.950Z,39.47
2018-05-18T13:44:33.545Z,47.13
2018-05-18T13:47:01.183Z,38.93
2018-05-18T13:49:28.741Z,44.70
2018-05-18T13:51:56.267Z,33.93
2018-05-18T13:54:23.867Z,49.07
2018-05-18T13:56:51.424Z,33.67
2018-05-18T13:59:19.018Z,48.17
2018-05-18T14:01:46.557Z,47.53
2018-05-18T14:04:14.098Z,49.30
2018-05-18T14:06:41.653Z,45.23
2018-05-18T14:09:09.260Z,51.90
2018-05-18T14:11:37.565Z,42.80
2018-05-18T14:14:05.126Z,41.10
2018-05-18T14:16:32.713Z,43.20
2018-05-18T14:19:00.391Z,45.63
2018-05-18T14:21:27.953Z,36.30
2018-05-18T14:23:55.527Z,42.60
2018-05-18T14:26:23.151Z,45.37
2018-05-18T14:28:50.714Z,34.07
2018-05-18T14:31:18.290Z,34.83
2018-05-18T14:33:45.820Z,40.50
2018-05-18T14:36:13.391Z,33.43
2018-05-18T14:38:40.964Z,49.30
2018-05-18T14:41:08.641Z,43.40
2018-05-18T14:43:36.217Z,45.23
2018-05-18T14:46:04.577Z,38.00
2018-05-18T14:48:32.906Z,54.33
2018-05-18T14:51:00.478Z,48.03
2018-05-18T14:53:28.040Z,40.00
2018-05-18T14:55:55.606Z,40.50
2018-05-18T14:58:23.156Z,46.17
2018-05-18T15:00:50.678Z,45.60
2018-05-18T15:03:19.024Z,37.80
2018-05-18T15:05:46.611Z,37.43
2018-05-18T15:08:14.964Z,36.13
2018-05-18T15:10:42.482Z,40.80
2018-05-18T15:13:10.054Z,56.80
2018-05-18T15:15:37.594Z,49.33
2018-05-18T15:18:05.182Z,37.67
2018-05-18T15:20:32.781Z,47.57
2018-05-18T15:23:00.339Z,50.43
2018-05-18T15:25:28.702Z,41.30
2018-05-18T15:27:57.073Z,40.43
2018-05-18T15:30:26.121Z,42.70
2018-05-18T15:32:53.679Z,36.50
2018-05-18T15:35:21.265Z,42.87
2018-05-18T15:37:48.837Z,52.43
2018-05-18T15:40:16.449Z,43.27
2018-05-18T15:42:44.069Z,44.80
2018-05-18T15:45:11.584Z,46.90
2018-05-18T15:47:39.143Z,43.47
2018-05-18T15:50:06.711Z,47.20
2018-05-18T15:52:34.247Z,40.27
2018-05-18T15:55:02.592Z,40.93
2018-05-18T15:57:30.299Z,55.03
2018-05-18T15:59:57.808Z,48.80
2018-05-18T16:02:25.342Z,44.97
2018-05-18T16:04:52.941Z,41.70
2018-05-18T16:07:21.268Z,40.53
2018-05-18T16:09:48.823Z,43.23
2018-05-18T16:12:16.526Z,42.97
2018-05-18T16:14:44.095Z,39.00
2018-05-18T16:17:11.665Z,53.73
2018-05-18T16:19:40.006Z,34.97
2018-05-18T16:22:07.577Z,43.83
2018-05-18T16:24:36.652Z,39.70
2018-05-18T16:27:04.259Z,40.70
2018-05-18T16:29:32.602Z,47.10
2018-05-18T16:32:00.177Z,37.83
2018-05-18T16:34:28.507Z,41.17
2018-05-18T16:36:56.059Z,40.93
2018-05-18T16:39:23.623Z,50.10
2018-05-18T16:41:51.222Z,45.10
2018-05-18T16:44:18.804Z,51.20
2018-05-18T16:46:46.352Z,36.67
2018-05-18T16:49:13.940Z,58.30
2018-05-18T16:51:42.268Z,44.17
2018-05-18T16:54:09.910Z,37.30
2018-05-18T16:56:37.508Z,38.57
2018-05-18T16:59:05.059Z,48.83
2018-05-18T17:01:32.619Z,48.73
2018-05-18T17:04:00.199Z,43.07
2018-05-18T17:06:28.550Z,38.50
2018-05-18T17:08:56.101Z,38.90
2018-05-18T17:11:23.687Z,44.37
2018-05-18T17:13:51.248Z,40.00
2018-05-18T17:16:19.566Z,46.10
2018-05-18T17:18:47.358Z,47.50
2018-05-18T17:21:14.912Z,40.70
2018-05-18T17:23:42.457Z,48.27
2018-05-18T17:26:10.030Z,51.30
2018-05-18T17:28:37.644Z,37.27
2018-05-18T17:31:05.986Z,39.23
2018-05-18T17:33:33.515Z,46.23
2018-05-18T17:36:01.085Z,47.47
2018-05-18T17:38:28.885Z,46.07
2018-05-18T17:40:56.454Z,43.43
2018-05-18T17:43:24.011Z,35.70
2018-05-18T17:45:51.566Z,42.10
2018-05-18T17:48:19.922Z,53.90
2018-05-18T17:50:47.461Z,54.87
2018-05-18T17:53:15.117Z,43.87
2018-05-18T17:55:42.710Z,44.70
2018-05-18T17:58:10.260Z,52.40
2018-05-18T18:00:38.973Z,43.93
2018-05-18T18:03:06.532Z,48.57
2018-05-18T18:05:34.100Z,53.57
2018-05-18T18:08:01.682Z,48.47
2018-05-18T18:10:29.223Z,43.67
2018-05-18T18:12:56.781Z,50.57
2018-05-18T18:15:24.313Z,55.10
2018-05-18T18:17:51.883Z,43.37
2018-05-18T18:20:19.487Z,56.57
2018-05-18T18:22:47.066Z,44.70
2018-05-18T18:25:14.684Z,53.07
2018-05-18T18:27:43.018Z,42.33
2018-05-18T18:30:10.577Z,60.37
2018-05-18T18:32:38.123Z,47.87
2018-05-18T18:35:05.692Z,43.50
2018-05-18T18:37:33.237Z,49.53
2018-05-18T18:40:00.821Z,54.30
2018-05-18T18:42:28.449Z,53.20
2018-05-18T18:44:56.012Z,42.23
2018-05-18T18:47:23.547Z,55.83
2018-05-18T18:49:51.858Z,54.17
2018-05-18T18:52:19.419Z,47.23
2018-05-18T18:54:46.980Z,50.30
2018-05-18T18:57:14.518Z,55.83
2018-05-18T18:59:42.057Z,46.43
2018-05-18T19:02:10.375Z,56.63
2018-05-18T19:04:37.903Z,43.77
2018-05-18T19:07:05.462Z,48.60
2018-05-18T19:09:33.163Z,47.13
2018-05-18T19:12:00.757Z,48.70
2018-05-18T19:14:28.332Z,45.07
2018-05-18T19:16:56.696Z,49.43
2018-05-18T19:19:24.226Z,55.17
2018-05-18T19:21:51.830Z,52.53
2018-05-18T19:24:19.467Z,49.93
2018-05-18T19:26:46.988Z,57.03
2018-05-18T19:29:14.563Z,51.93
2018-05-18T19:31:42.126Z,55.10
2018-05-18T19:34:09.683Z,44.70
2018-05-18T19:36:37.420Z,50.13
2018-05-18T19:39:05.731Z,63.43
2018-05-18T19:41:33.403Z,54.40
2018-05-18T19:44:01.016Z,53.63
2018-05-18T19:46:28.583Z,57.20
2018-05-18T19:48:56.137Z,53.40
2018-05-18T19:51:23.820Z,46.87
2018-05-18T19:53:51.343Z,49.60
2018-05-18T19:56:19.655Z,47.63
2018-05-18T19:58:47.209Z,52.53
2018-05-18T20:01:14.813Z,49.23
2018-05-18T20:03:43.152Z,54.63
2018-05-18T20:06:10.723Z,58.30
2018-05-18T20:08:38.246Z,45.90
2018-05-18T20:11:05.827Z,57.77
2018-05-18T20:13:33.351Z,61.50
2018-05-18T20:16:00.884Z,50.83
2018-05-18T20:18:28.426Z,52.67
2018-05-18T20:20:56.002Z,48.90
2018-05-18T20:23:23.546Z,50.93
2018-05-18T20:25:51.154Z,54.50
2018-05-18T20:28:18.711Z,54.80
2018-05-18T20:30:46.260Z,62.23
2018-05-18T20:33:14.598Z,49.47
2018-05-18T20:35:42.131Z,47.07
2018-05-18T20:38:09.732Z,42.67
2018-05-18T20:40:37.279Z,48.03
2018-05-18T20:43:04.821Z,37.90
2018-05-18T20:45:32.412Z,42.60
2018-05-18T20:47:59.987Z,48.50
2018-05-18T20:50:28.319Z,50.50
2018-05-18T20:52:55.897Z,56.40
2018-05-18T20:55:23.493Z,52.77
2018-05-18T20:57:51.856Z,40.43
2018-05-18T21:00:20.217Z,44.00
2018-05-18T21:02:47.786Z,46.83
2018-05-18T21:05:15.347Z,43.77
2018-05-18T21:07:42.926Z,59.60
2018-05-18T21:10:11.286Z,59.70
2018-05-18T21:12:38.813Z,48.27
2018-05-18T21:15:06.365Z,46.93
2018-05-18T21:17:33.903Z,48.97
2018-05-18T21:20:01.430Z,44.70
2018-05-18T21:22:29.753Z,43.50
2018-05-18T21:24:57.299Z,52.00
2018-05-18T21:27:24.839Z,51.73
2018-05-18T21:29:53.401Z,53.00
2018-05-18T21:32:21.727Z,45.17
2018-05-18T21:34:49.276Z,51.03
2018-05-18T21:37:16.851Z,45.80
2018-05-18T21:39:44.426Z,52.80
2018-05-18T21:42:12.003Z,58.03
2018-05-18T21:44:39.579Z,47.97
2018-05-18T21:47:07.979Z,46.10
2018-05-18T21:49:35.596Z,42.20
2018-05-18T21:52:03.291Z,48.90
2018-05-18T21:54:30.855Z,50.80
2018-05-18T21:56:59.282Z,44.83
2018-05-18T21:59:26.873Z,47.73
2018-05-18T22:01:54.466Z,45.53
2018-05-18T22:04:22.136Z,46.83
2018-05-18T22:06:49.677Z,43.03
2018-05-18T22:09:17.983Z,42.13
2018-05-18T22:11:45.521Z,44.83
2018-05-18T22:14:13.093Z,41.83
2018-05-18T22:16:40.676Z,37.93
2018-05-18T22:19:08.225Z,39.60
2018-05-18T22:21:35.750Z,42.87
2018-05-18T22:24:04.059Z,49.83
2018-05-18T22:26:31.656Z,47.30
2018-05-18T22:28:59.239Z,51.60
2018-05-18T22:31:27.543Z,51.83
2018-05-18T22:33:55.111Z,49.40
2018-05-18T22:36:22.692Z,48.53
2018-05-18T22:38:50.248Z,42.90
2018-05-18T22:41:17.795Z,42.83
2018-05-18T22:43:45.360Z,35.50
2018-05-18T22:46:12.916Z,49.73
2018-05-18T22:48:40.448Z,38.20
2018-05-18T22:51:08.015Z,44.80
2018-05-18T22:53:35.603Z,46.67
2018-05-18T22:56:03.218Z,46.30
2018-05-18T22:58:30.819Z,44.10
2018-05-18T23:00:58.385Z,44.87
2018-05-18T23:03:25.928Z,46.50
2018-05-18T23:05:53.505Z,42.87
2018-05-18T23:08:21.041Z,44.10
2018-05-18T23:10:48.612Z,47.07
2018-05-18T23:13:16.200Z,53.93
2018-05-18T23:15:43.753Z,50.13
2018-05-18T23:18:11.340Z,55.67
2018-05-18T23:20:39.647Z,45.00
2018-05-18T23:23:07.206Z,55.13
2018-05-18T23:25:34.741Z,50.53
2018-05-18T23:28:03.046Z,69.70
2018-05-18T23:30:30.585Z,54.17
2018-05-18T23:32:58.919Z,56.63
2018-05-18T23:35:26.528Z,73.13
2018-05-18T23:37:54.215Z,58.97
2018-05-18T23:40:21.759Z,58.00
2018-05-18T23:42:49.315Z,52.90
2018-05-18T23:45:16.868Z,47.47
2018-05-18T23:47:45.231Z,45.60
2018-05-18T23:50:13.577Z,56.60
2018-05-18T23:52:41.951Z,57.00
2018-05-18T23:55:09.554Z,54.63
2018-05-18T23:57:37.880Z,46.43
